Superstar Express — 3FFX9 — position and weather

sailwx.info

Track history (hours):
 
Tides and Currents Weather Stations Pressure Air Temp Water Temp Dewpoint Dewpoint Depression Visibility Wind Speed Wind Dir Waves Ship Positions

Superstar Express

Operator: P & O Irish Sea

Last reported at 2019-Jun-07 06:49 UTC. Time now 2019-Jul-20 13:30 UTC.
Position N 34°25' E 134°20'.
Warning: this ship's position is 43 days out of date.

Length 183 m; draft 10.8 m.

Type: Ship. MMSI: 351360000.

Date/timePositionNaut miles runAvg speedWind from/ knotsBaromVisibWave heightAir tempDewpointWater temp
2019-Jun-07 06:49N 34°25' E 134°20'411.6
2019-Jun-07 06:30N 34°26' E 134°25'611.6
2019-Jun-07 06:01N 34°28' E 134°31'611.6
2019-Jun-07 05:30N 34°30' E 134°38'611.8
2019-Jun-07 05:00N 34°33' E 134°44'611.9
2019-Jun-07 04:30N 34°35' E 134°51'612.0
2019-Jun-07 04:00N 34°37' E 134°58'510.2
2019-Jun-07 03:30N 34°36' E 135°04'4 8.0
2019-Jun-07 03:01N 34°33' E 135°07'4 7.6
2019-Jun-07 02:31N 34°30' E 135°06'611.3
2019-Jun-07 02:01N 34°25' E 135°03'611.6
2019-Jun-07 01:31N 34°20' E 134°59'611.9
2019-Jun-07 01:00N 34°14' E 134°59'5 9.3
2019-Jun-07 00:31N 34°09' E 134°60'4 7.1
2019-Jun-07 00:00N 34°05' E 134°60'5 9.8
2019-Jun-06 23:30N 34°01' E 134°60'510.3
2019-Jun-06 23:01N 33°55' E 134°60'510.1
2019-Jun-06 22:30N 33°50' E 135°00'5 9.7
2019-Jun-06 22:00N 33°46' E 135°00'5 9.7
2019-Jun-06 21:30N 33°41' E 135°00'5 9.3
2019-Jun-06 20:59N 33°36' E 135°00'26 2.5
2019-Jun-06 10:29N 33°13' E 135°15'  
Track history (hours):
 
Tides and Currents Weather Stations Pressure Air Temp Water Temp Dewpoint Dewpoint Depression Visibility Wind Speed Wind Dir Waves Ship Positions

Superstar Express

Operator: P & O Irish Sea

Last reported at 2019-Jun-07 06:49 UTC. Time now 2019-Jul-20 13:30 UTC.
Position N 34°25' E 134°20'.
Warning: this ship's position is 43 days out of date.

Length 183 m; draft 10.8 m.

Type: Ship. MMSI: 351360000.

Date/timePositionNaut miles runAvg speedWind from/ knotsBaromVisibWave heightAir tempDewpointWater temp
2019-Jun-07 06:49N 34°25' E 134°20'411.6
2019-Jun-07 06:30N 34°26' E 134°25'611.6
2019-Jun-07 06:01N 34°28' E 134°31'611.6
2019-Jun-07 05:30N 34°30' E 134°38'611.8
2019-Jun-07 05:00N 34°33' E 134°44'611.9
2019-Jun-07 04:30N 34°35' E 134°51'612.0
2019-Jun-07 04:00N 34°37' E 134°58'510.2
2019-Jun-07 03:30N 34°36' E 135°04'4 8.0
2019-Jun-07 03:01N 34°33' E 135°07'4 7.6
2019-Jun-07 02:31N 34°30' E 135°06'611.3
2019-Jun-07 02:01N 34°25' E 135°03'611.6
2019-Jun-07 01:31N 34°20' E 134°59'611.9
2019-Jun-07 01:00N 34°14' E 134°59'5 9.3
2019-Jun-07 00:31N 34°09' E 134°60'4 7.1
2019-Jun-07 00:00N 34°05' E 134°60'5 9.8
2019-Jun-06 23:30N 34°01' E 134°60'510.3
2019-Jun-06 23:01N 33°55' E 134°60'510.1
2019-Jun-06 22:30N 33°50' E 135°00'5 9.7
2019-Jun-06 22:00N 33°46' E 135°00'5 9.7
2019-Jun-06 21:30N 33°41' E 135°00'5 9.3
2019-Jun-06 20:59N 33°36' E 135°00'26 2.5
2019-Jun-06 10:29N 33°13' E 135°15'  

Dump ship's entire track history